South Cave, United Kingdom
Current Conditions -  °F | °C
As of 8:50 PM on Friday 26 Dec 2014 (Local Time) from EGXV Reporting Station
Moderate Rain Moderate Rain  
Wind Chill: 31°   Ceiling: 2500
Heat Index: 36°   Visibility: 4mi
Dew Point: 34°   Wind: 6mph
Humidity: 93%   Direction: 80°E
Pressure: 29.85"   Gusts: NA
Location:  53.77°N, 0.6°W
Report Text: EGXV 262050Z AUTO 08005KT 7000 RA SCT006/// BKN025/// 02/01 Q1011
Loading
Personal Weather Stations






























Interactive Weather Map New forecast layout! Learn more

10-Day Weather Forecast

Advertisements
Track Severe Weather on mobile